createdAt,value
2022-10-13T00:00:47.418Z,19.35
2022-10-13T00:03:14.597Z,20.85
2022-10-13T00:05:42.909Z,15.90
2022-10-13T00:08:10.577Z,17.15
2022-10-13T00:10:41.904Z,18.13
2022-10-13T00:13:12.195Z,25.60
2022-10-13T00:15:41.398Z,18.25
2022-10-13T00:18:08.068Z,20.92
2022-10-13T00:20:35.561Z,18.83
2022-10-13T00:23:02.172Z,19.73
2022-10-13T00:25:28.722Z,16.75
2022-10-13T00:27:55.303Z,16.23
2022-10-13T00:30:27.071Z,20.58
2022-10-13T00:32:53.602Z,21.92
2022-10-13T00:35:20.117Z,19.08
2022-10-13T00:37:46.686Z,18.52
2022-10-13T00:40:13.259Z,17.13
2022-10-13T00:42:41.598Z,18.52
2022-10-13T00:45:22.252Z,20.88
2022-10-13T00:47:55.266Z,23.13
2022-10-13T00:50:26.194Z,16.25
2022-10-13T00:52:57.037Z,19.80
2022-10-13T00:55:31.218Z,20.30
2022-10-13T00:58:05.213Z,20.30
2022-10-13T01:00:34.031Z,18.40
2022-10-13T01:03:02.936Z,18.60
2022-10-13T01:05:30.931Z,18.57
2022-10-13T01:07:59.404Z,23.48
2022-10-13T01:10:42.288Z,20.55
2022-10-13T01:13:18.233Z,25.17
2022-10-13T01:16:00.960Z,21.77
2022-10-13T01:18:46.357Z,24.50
2022-10-13T01:21:19.627Z,22.75
2022-10-13T01:24:20.904Z,19.88
2022-10-13T01:27:08.746Z,19.90
2022-10-13T01:30:06.549Z,21.52
2022-10-13T01:32:54.382Z,21.67
2022-10-13T01:35:33.447Z,19.85
2022-10-13T01:38:21.972Z,23.30
2022-10-13T01:41:19.698Z,19.58
2022-10-13T01:43:55.935Z,20.65
2022-10-13T01:46:27.733Z,21.05
2022-10-13T01:48:58.140Z,21.00
2022-10-13T01:51:27.985Z,23.98
2022-10-13T01:53:54.634Z,26.35
2022-10-13T01:56:21.161Z,23.88
2022-10-13T01:58:49.790Z,22.38
2022-10-13T02:01:35.264Z,21.40
2022-10-13T02:04:35.971Z,18.58
2022-10-13T02:07:11.200Z,19.10
2022-10-13T02:10:04.445Z,20.00
2022-10-13T02:12:38.334Z,21.67
2022-10-13T02:15:09.030Z,22.35
2022-10-13T02:17:35.809Z,18.83
2022-10-13T02:20:05.955Z,23.65
2022-10-13T02:22:42.238Z,19.10
2022-10-13T02:25:09.559Z,21.70
2022-10-13T02:27:36.119Z,18.85
2022-10-13T02:30:03.522Z,24.10
2022-10-13T02:32:30.643Z,21.42
2022-10-13T02:34:57.349Z,28.23
2022-10-13T02:37:25.698Z,25.42
2022-10-13T02:39:52.795Z,24.50
2022-10-13T02:42:19.824Z,25.23
2022-10-13T02:44:46.858Z,25.63
2022-10-13T02:47:13.400Z,21.20
2022-10-13T02:49:40.182Z,22.92
2022-10-13T02:52:06.844Z,27.80
2022-10-13T02:54:33.405Z,27.65
2022-10-13T02:57:00.011Z,26.85
2022-10-13T02:59:26.621Z,29.10
2022-10-13T03:01:53.179Z,24.23
2022-10-13T03:04:19.737Z,19.65
2022-10-13T03:06:46.301Z,24.23
2022-10-13T03:09:13.537Z,21.15
2022-10-13T03:11:43.414Z,23.13
2022-10-13T03:14:10.054Z,22.02
2022-10-13T03:16:36.675Z,20.08
2022-10-13T03:19:03.228Z,24.45
2022-10-13T03:21:29.804Z,24.85
2022-10-13T03:23:56.485Z,24.83
2022-10-13T03:26:24.184Z,24.20
2022-10-13T03:28:51.514Z,25.30
2022-10-13T03:31:18.808Z,28.40
2022-10-13T03:33:46.651Z,23.40
2022-10-13T03:36:13.577Z,24.38
2022-10-13T03:38:42.286Z,24.30
2022-10-13T03:41:11.875Z,28.42
2022-10-13T03:43:39.028Z,23.83
2022-10-13T03:46:07.165Z,25.30
2022-10-13T03:48:35.939Z,23.98
2022-10-13T03:51:08.091Z,28.83
2022-10-13T03:53:35.351Z,29.05
2022-10-13T03:56:02.272Z,29.33
2022-10-13T03:58:34.520Z,35.08
2022-10-13T04:01:05.356Z,36.17
2022-10-13T04:03:33.196Z,31.42
2022-10-13T04:06:01.931Z,31.27
2022-10-13T04:08:29.694Z,29.47
2022-10-13T04:11:07.855Z,33.65
2022-10-13T04:13:34.983Z,29.70
2022-10-13T04:16:06.923Z,31.92
2022-10-13T04:18:34.079Z,26.67
2022-10-13T04:21:01.176Z,31.90
2022-10-13T04:23:27.752Z,33.97
2022-10-13T04:25:54.385Z,34.03
2022-10-13T04:28:21.020Z,29.48
2022-10-13T04:30:49.512Z,33.05
2022-10-13T04:33:16.483Z,32.03
2022-10-13T04:35:43.115Z,29.10
2022-10-13T04:38:09.705Z,33.72
2022-10-13T04:40:36.310Z,34.72
2022-10-13T04:43:03.075Z,33.65
2022-10-13T04:45:29.797Z,35.33
2022-10-13T04:47:56.362Z,37.22
2022-10-13T04:50:23.031Z,36.05
2022-10-13T04:52:59.423Z,33.75
2022-10-13T04:55:26.300Z,36.10
2022-10-13T04:57:52.803Z,31.05
2022-10-13T05:00:19.468Z,30.50
2022-10-13T05:02:46.045Z,33.15
2022-10-13T05:05:12.613Z,28.02
2022-10-13T05:07:39.244Z,31.85
2022-10-13T05:10:06.128Z,37.55
2022-10-13T05:12:33.536Z,32.67
2022-10-13T05:15:00.732Z,29.70
2022-10-13T05:17:34.854Z,35.78
2022-10-13T05:20:06.028Z,31.15
2022-10-13T05:22:32.869Z,36.97
2022-10-13T05:24:59.366Z,28.83
2022-10-13T05:27:25.955Z,31.33
2022-10-13T05:29:52.491Z,27.63
2022-10-13T05:32:19.263Z,32.30
2022-10-13T05:34:48.579Z,28.23
2022-10-13T05:37:17.019Z,30.98
2022-10-13T05:39:48.457Z,25.80
2022-10-13T05:42:15.424Z,30.33
2022-10-13T05:44:42.745Z,33.10
2022-10-13T05:47:09.309Z,26.70
2022-10-13T05:49:39.835Z,29.73
2022-10-13T05:52:09.955Z,35.65
2022-10-13T05:54:44.209Z,28.95
2022-10-13T05:57:16.287Z,29.30
2022-10-13T05:59:58.184Z,29.83
2022-10-13T06:02:28.326Z,29.00
2022-10-13T06:04:57.473Z,30.27
2022-10-13T06:07:24.155Z,29.75
2022-10-13T06:09:50.824Z,32.30
2022-10-13T06:12:17.660Z,30.85
2022-10-13T06:14:44.390Z,29.48
2022-10-13T06:17:11.345Z,32.90
2022-10-13T06:19:42.726Z,32.08
2022-10-13T06:22:09.339Z,34.60
2022-10-13T06:24:35.839Z,32.55
2022-10-13T06:27:07.644Z,31.52
2022-10-13T06:29:36.262Z,34.90
2022-10-13T06:32:02.806Z,31.80
2022-10-13T06:34:29.358Z,40.22
2022-10-13T06:36:55.881Z,33.13
2022-10-13T06:39:22.560Z,31.60
2022-10-13T06:41:49.907Z,38.30
2022-10-13T06:44:16.462Z,34.20
2022-10-13T06:46:42.957Z,36.17
2022-10-13T06:49:10.341Z,35.25
2022-10-13T06:51:37.060Z,40.60
2022-10-13T06:54:03.700Z,39.65
2022-10-13T06:56:30.910Z,34.72
2022-10-13T06:58:58.766Z,38.92
2022-10-13T07:01:25.332Z,38.08
2022-10-13T07:03:52.382Z,38.60
2022-10-13T07:06:20.822Z,43.47
2022-10-13T07:08:49.415Z,40.47
2022-10-13T07:11:16.729Z,39.67
2022-10-13T07:13:48.594Z,40.53
2022-10-13T07:16:15.704Z,38.53
2022-10-13T07:18:42.426Z,42.83
2022-10-13T07:21:09.611Z,37.72
2022-10-13T07:23:36.236Z,41.00
2022-10-13T07:26:07.434Z,38.03
2022-10-13T07:28:34.063Z,36.75
2022-10-13T07:31:00.667Z,38.53
2022-10-13T07:33:27.268Z,35.00
2022-10-13T07:35:53.838Z,39.70
2022-10-13T07:38:20.331Z,39.88
2022-10-13T07:40:47.830Z,32.33
2022-10-13T07:43:14.411Z,30.92
2022-10-13T07:45:41.209Z,36.08
2022-10-13T07:48:07.853Z,36.38
2022-10-13T07:50:34.488Z,42.45
2022-10-13T07:53:01.195Z,39.58
2022-10-13T07:55:27.805Z,38.30
2022-10-13T07:57:54.365Z,34.00
2022-10-13T08:00:21.489Z,34.92
2022-10-13T08:02:51.660Z,35.38
2022-10-13T08:05:18.318Z,34.10
2022-10-13T08:07:45.508Z,35.28
2022-10-13T08:10:12.872Z,33.45
2022-10-13T08:12:39.450Z,39.92
2022-10-13T08:15:06.872Z,37.05
2022-10-13T08:17:33.570Z,35.63
2022-10-13T08:20:00.115Z,31.48
2022-10-13T08:22:28.521Z,31.27
2022-10-13T08:24:55.904Z,30.52
2022-10-13T08:27:37.048Z,31.88
2022-10-13T08:30:11.825Z,29.88
2022-10-13T08:32:38.466Z,32.38
2022-10-13T08:35:05.419Z,28.83
2022-10-13T08:37:31.960Z,30.17
2022-10-13T08:39:58.881Z,25.05
2022-10-13T08:42:25.509Z,24.58
2022-10-13T08:47:55.366Z,23.80
2022-10-13T08:50:26.961Z,29.02
2022-10-13T08:52:56.397Z,30.33
2022-10-13T08:55:39.630Z,22.27
2022-10-13T08:58:31.478Z,20.60
2022-10-13T09:01:00.605Z,22.98
2022-10-13T09:03:29.816Z,20.30
2022-10-13T09:06:14.844Z,26.77
2022-10-13T09:08:52.513Z,21.15
2022-10-13T09:11:19.662Z,19.02
2022-10-13T09:13:46.200Z,22.55
2022-10-13T09:16:12.850Z,18.27
2022-10-13T09:18:39.606Z,20.92
2022-10-13T09:21:24.872Z,16.00
2022-10-13T09:23:54.050Z,21.40
2022-10-13T09:26:24.503Z,22.17
2022-10-13T09:28:52.463Z,17.83
2022-10-13T09:31:28.145Z,18.25
2022-10-13T09:34:02.630Z,17.85
2022-10-13T09:36:29.364Z,20.35
2022-10-13T09:39:13.792Z,20.42
2022-10-13T09:41:42.493Z,20.25
2022-10-13T09:44:17.282Z,14.63
2022-10-13T09:46:54.856Z,22.98
2022-10-13T09:49:42.873Z,19.60
2022-10-13T09:52:12.486Z,17.95
2022-10-13T09:57:41.222Z,19.53
2022-10-13T10:00:14.556Z,17.27
2022-10-13T10:02:51.307Z,21.90
2022-10-13T10:05:38.000Z,20.27
2022-10-13T10:08:14.447Z,21.75
2022-10-13T10:10:41.769Z,19.90
2022-10-13T10:13:13.097Z,16.13
2022-10-13T10:15:42.687Z,19.65
2022-10-13T10:21:18.442Z,20.85
2022-10-13T10:24:08.159Z,19.35
2022-10-13T10:26:40.828Z,17.38
2022-10-13T10:29:43.723Z,21.02
2022-10-13T10:32:16.241Z,17.58
2022-10-13T10:34:48.698Z,17.42
2022-10-13T10:37:15.352Z,17.60
2022-10-13T10:40:08.293Z,17.85
2022-10-13T10:42:53.093Z,14.20
2022-10-13T10:45:33.817Z,15.32
2022-10-13T10:48:12.359Z,20.38
2022-10-13T10:50:39.671Z,16.30
2022-10-13T10:53:33.821Z,14.88
2022-10-13T10:56:33.097Z,13.32
2022-10-13T10:59:21.943Z,15.95
2022-10-13T11:02:35.111Z,17.45
2022-10-13T11:05:05.398Z,20.02
2022-10-13T11:07:33.193Z,18.23
2022-10-13T11:09:59.705Z,16.65
2022-10-13T11:12:47.079Z,18.80
2022-10-13T11:15:26.175Z,14.00
2022-10-13T11:17:53.277Z,14.73
2022-10-13T11:20:19.928Z,12.90
2022-10-13T11:22:58.770Z,15.23
2022-10-13T11:25:34.197Z,14.25
2022-10-13T11:28:00.917Z,15.35
2022-10-13T11:30:50.212Z,14.73
2022-10-13T11:33:51.450Z,15.43
2022-10-13T11:36:49.999Z,14.05
2022-10-13T11:42:31.373Z,13.60
2022-10-13T11:45:01.921Z,12.93
2022-10-13T11:47:39.235Z,15.48
2022-10-13T11:50:44.243Z,16.92
2022-10-13T11:53:26.167Z,15.27
2022-10-13T11:55:58.940Z,13.77
2022-10-13T11:58:34.246Z,12.68
2022-10-13T12:01:03.372Z,17.05
2022-10-13T12:03:38.514Z,13.98
2022-10-13T12:06:33.383Z,13.57
2022-10-13T12:09:15.241Z,16.50
2022-10-13T12:11:42.080Z,10.85
2022-10-13T12:14:20.976Z,15.48
2022-10-13T12:19:26.001Z,14.18
2022-10-13T12:21:55.573Z,14.05
2022-10-13T12:26:54.205Z,13.43
2022-10-13T12:29:25.320Z,13.57
2022-10-13T12:31:52.065Z,12.65
2022-10-13T12:34:32.754Z,7.25
2022-10-13T12:37:03.086Z,12.70
2022-10-13T12:39:32.019Z,12.18
2022-10-13T12:42:00.801Z,13.23
2022-10-13T12:44:30.078Z,8.00
2022-10-13T12:46:59.144Z,10.30
2022-10-13T12:49:32.213Z,11.32
2022-10-13T12:52:11.252Z,7.43
2022-10-13T12:54:40.783Z,9.80
2022-10-13T12:59:43.868Z,9.32
2022-10-13T13:02:29.284Z,10.30
2022-10-13T13:04:56.342Z,7.63
2022-10-13T13:07:36.929Z,7.45
2022-10-13T13:10:03.474Z,9.68
2022-10-13T13:12:31.208Z,10.85
2022-10-13T13:14:58.451Z,10.05
2022-10-13T13:17:52.881Z,9.75
2022-10-13T13:20:29.393Z,7.68
2022-10-13T13:22:57.526Z,6.55
2022-10-13T13:25:24.488Z,7.70
2022-10-13T13:27:52.182Z,12.63
2022-10-13T13:30:21.541Z,9.73
2022-10-13T13:32:48.362Z,10.13
2022-10-13T13:35:15.187Z,9.27
2022-10-13T13:37:51.409Z,7.28
2022-10-13T13:40:26.242Z,16.70
2022-10-13T13:42:53.417Z,11.82
2022-10-13T13:45:25.298Z,13.05
2022-10-13T13:47:55.824Z,17.30
2022-10-13T13:50:37.473Z,13.48
2022-10-13T13:53:04.734Z,9.70
2022-10-13T13:55:31.324Z,12.10
2022-10-13T13:57:58.415Z,6.40
2022-10-13T14:00:25.374Z,9.38
2022-10-13T14:02:55.105Z,11.77
2022-10-13T14:05:21.661Z,12.88
2022-10-13T14:07:48.315Z,8.73
2022-10-13T14:10:14.988Z,14.18
2022-10-13T14:12:41.594Z,8.43
2022-10-13T14:15:08.910Z,11.27
2022-10-13T14:17:35.586Z,12.05
2022-10-13T14:20:02.172Z,15.07
2022-10-13T14:22:28.821Z,12.90
2022-10-13T14:24:55.448Z,10.35
2022-10-13T14:27:22.792Z,10.02
2022-10-13T14:29:49.585Z,12.30
2022-10-13T14:32:20.462Z,14.15
2022-10-13T14:34:47.504Z,10.32
2022-10-13T14:37:14.082Z,14.20
2022-10-13T14:39:40.614Z,13.70
2022-10-13T14:42:07.251Z,10.52
2022-10-13T14:44:34.141Z,10.23
2022-10-13T14:47:02.315Z,12.02
2022-10-13T14:49:29.314Z,11.95
2022-10-13T14:51:55.848Z,17.63
2022-10-13T14:54:22.515Z,11.68
2022-10-13T14:56:49.128Z,16.35
2022-10-13T14:59:16.036Z,11.57
2022-10-13T15:01:43.413Z,9.93
2022-10-13T15:04:10.564Z,13.45
2022-10-13T15:06:40.464Z,10.50
2022-10-13T15:11:40.201Z,13.18
2022-10-13T15:14:07.518Z,13.63
2022-10-13T15:16:34.283Z,12.13
2022-10-13T15:19:01.090Z,13.77
2022-10-13T15:21:27.654Z,10.15
2022-10-13T15:23:54.246Z,11.05
2022-10-13T15:26:20.835Z,13.38
2022-10-13T15:28:50.570Z,13.50
2022-10-13T15:31:18.852Z,11.90
2022-10-13T15:33:47.078Z,16.65
2022-10-13T15:36:14.065Z,16.67
2022-10-13T15:38:40.818Z,17.25
2022-10-13T15:41:07.907Z,14.77
2022-10-13T15:43:34.706Z,13.57
2022-10-13T15:46:12.721Z,16.45
2022-10-13T15:48:39.889Z,11.93
2022-10-13T15:51:14.389Z,14.88
2022-10-13T15:53:40.940Z,16.45
2022-10-13T15:56:08.359Z,17.75
2022-10-13T15:58:35.944Z,15.85
2022-10-13T16:01:08.241Z,13.23
2022-10-13T16:03:35.324Z,16.50
2022-10-13T16:06:10.388Z,16.17
2022-10-13T16:08:43.614Z,13.88
2022-10-13T16:11:12.369Z,16.00
2022-10-13T16:13:39.879Z,19.95
2022-10-13T16:16:06.903Z,23.15
2022-10-13T16:18:35.896Z,22.73
2022-10-13T16:21:18.873Z,24.77
2022-10-13T16:23:46.760Z,17.95
2022-10-13T16:26:13.655Z,16.52
2022-10-13T16:28:40.537Z,16.80
2022-10-13T16:31:15.079Z,16.88
2022-10-13T16:33:43.354Z,19.20
2022-10-13T16:36:12.979Z,15.43
2022-10-13T16:38:40.247Z,17.52
2022-10-13T16:41:10.141Z,18.95
2022-10-13T16:43:36.854Z,19.92
2022-10-13T16:46:05.161Z,17.73
2022-10-13T16:48:33.251Z,17.23
2022-10-13T16:51:05.221Z,24.23
2022-10-13T16:53:31.898Z,20.60
2022-10-13T16:55:58.488Z,18.77
2022-10-13T16:58:25.125Z,20.58
2022-10-13T17:00:51.795Z,18.75
2022-10-13T17:03:18.432Z,19.10
2022-10-13T17:05:52.997Z,22.63
2022-10-13T17:08:19.510Z,17.95
2022-10-13T17:10:46.199Z,21.48
2022-10-13T17:13:12.785Z,21.67
2022-10-13T17:15:39.327Z,23.20
2022-10-13T17:18:06.057Z,18.75
2022-10-13T17:20:32.812Z,19.75
2022-10-13T17:22:59.379Z,18.63
2022-10-13T17:25:26.009Z,25.65
2022-10-13T17:27:52.526Z,23.58
2022-10-13T17:30:19.409Z,22.58
2022-10-13T17:32:45.920Z,26.75
2022-10-13T17:35:17.872Z,18.98
2022-10-13T17:37:44.754Z,20.73
2022-10-13T17:40:12.244Z,23.90
2022-10-13T17:42:38.977Z,19.65
2022-10-13T17:45:05.907Z,24.25
2022-10-13T17:47:32.502Z,24.58
2022-10-13T17:49:59.070Z,24.15
2022-10-13T17:52:26.707Z,31.02
2022-10-13T17:54:53.416Z,27.55
2022-10-13T17:57:21.630Z,26.88
2022-10-13T17:59:52.906Z,28.70
2022-10-13T18:02:19.495Z,27.50
2022-10-13T18:04:46.416Z,27.95
2022-10-13T18:07:13.133Z,29.27
2022-10-13T18:09:39.927Z,28.63
2022-10-13T18:12:06.721Z,27.90
2022-10-13T18:14:33.500Z,29.15
2022-10-13T18:17:00.296Z,30.65
2022-10-13T18:19:26.853Z,32.63
2022-10-13T18:21:53.678Z,29.52
2022-10-13T18:24:20.424Z,28.25
2022-10-13T18:26:47.689Z,33.05
2022-10-13T18:29:14.470Z,27.70
2022-10-13T18:31:42.198Z,32.72
2022-10-13T18:34:15.146Z,27.08
2022-10-13T18:36:44.915Z,33.85
2022-10-13T18:39:14.420Z,29.23
2022-10-13T18:41:43.906Z,30.50
2022-10-13T18:44:11.082Z,27.35
2022-10-13T18:46:39.040Z,27.48
2022-10-13T18:49:07.584Z,28.52
2022-10-13T18:51:36.627Z,35.15
2022-10-13T18:54:04.720Z,33.70
2022-10-13T18:56:33.198Z,33.80
2022-10-13T18:59:01.937Z,31.05
2022-10-13T19:01:31.140Z,32.77
2022-10-13T19:06:27.123Z,30.58
2022-10-13T19:09:00.787Z,32.17
2022-10-13T19:11:28.769Z,34.67
2022-10-13T19:13:55.973Z,34.33
2022-10-13T19:16:24.526Z,32.58
2022-10-13T19:18:52.231Z,31.45
2022-10-13T19:21:20.395Z,29.45
2022-10-13T19:23:47.179Z,27.92
2022-10-13T19:26:21.428Z,33.63
2022-10-13T19:28:48.334Z,27.73
2022-10-13T19:31:21.271Z,33.95
2022-10-13T19:33:50.186Z,32.42
2022-10-13T19:36:30.480Z,32.58
2022-10-13T19:39:01.006Z,29.95
2022-10-13T19:41:29.840Z,28.42
2022-10-13T19:43:56.712Z,34.95
2022-10-13T19:46:24.387Z,29.92
2022-10-13T19:48:51.308Z,33.40
2022-10-13T19:51:18.094Z,31.85
2022-10-13T19:53:44.813Z,26.27
2022-10-13T19:56:38.186Z,26.73
2022-10-13T19:59:07.914Z,28.20
2022-10-13T20:01:40.064Z,24.70
2022-10-13T20:04:12.406Z,28.30
2022-10-13T20:06:39.923Z,29.23
2022-10-13T20:09:06.629Z,34.00
2022-10-13T20:11:33.605Z,35.67
2022-10-13T20:14:00.483Z,29.08
2022-10-13T20:16:27.623Z,33.22
2022-10-13T20:18:56.682Z,26.45
2022-10-13T20:21:24.766Z,31.67
2022-10-13T20:23:51.847Z,28.65
2022-10-13T20:26:19.342Z,33.55
2022-10-13T20:28:48.318Z,27.25
2022-10-13T20:31:18.214Z,31.23
2022-10-13T20:33:46.939Z,38.03
2022-10-13T20:36:16.631Z,37.07
2022-10-13T20:38:43.350Z,30.23
2022-10-13T20:41:22.467Z,33.38
2022-10-13T20:43:49.787Z,30.50
2022-10-13T20:46:18.052Z,37.60
2022-10-13T20:49:09.334Z,38.13
2022-10-13T20:51:31.587Z,36.83
2022-10-13T20:53:58.428Z,38.10
2022-10-13T20:56:26.860Z,36.88
2022-10-13T20:58:54.058Z,36.17
2022-10-13T21:01:22.288Z,44.03
2022-10-13T21:03:52.957Z,46.13
2022-10-13T21:06:20.140Z,41.00
2022-10-13T21:08:47.208Z,42.15
2022-10-13T21:11:15.689Z,42.30
2022-10-13T21:13:43.861Z,42.05
2022-10-13T21:16:16.219Z,46.58
2022-10-13T21:18:50.851Z,35.05
2022-10-13T21:21:22.588Z,51.53
2022-10-13T21:23:59.513Z,41.08
2022-10-13T21:26:27.814Z,46.60
2022-10-13T21:28:54.709Z,47.88
2022-10-13T21:31:23.239Z,58.90
2022-10-13T21:33:50.645Z,51.00
2022-10-13T21:36:20.140Z,57.75
2022-10-13T21:41:14.670Z,61.70
2022-10-13T21:43:41.691Z,54.20
2022-10-13T21:46:16.073Z,57.50
2022-10-13T21:48:44.029Z,54.50
2022-10-13T21:51:21.178Z,45.15
2022-10-13T21:53:53.437Z,49.70
2022-10-13T21:56:20.930Z,48.75
2022-10-13T21:58:48.888Z,56.45
2022-10-13T22:01:19.634Z,61.72
2022-10-13T22:03:47.245Z,54.40
2022-10-13T22:06:19.283Z,58.58
2022-10-13T22:08:48.394Z,59.35
2022-10-13T22:11:21.696Z,56.83
2022-10-13T22:13:48.284Z,57.53
2022-10-13T22:16:34.202Z,49.42
2022-10-13T22:19:01.173Z,47.50
2022-10-13T22:21:31.318Z,47.90
2022-10-13T22:24:00.254Z,53.53
2022-10-13T22:26:29.089Z,53.05
2022-10-13T22:29:00.026Z,50.90
2022-10-13T22:31:27.907Z,45.80
2022-10-13T22:33:54.895Z,49.65
2022-10-13T22:36:24.161Z,56.72
2022-10-13T22:38:53.037Z,43.85
2022-10-13T22:41:20.753Z,46.40
2022-10-13T22:43:56.338Z,47.40
2022-10-13T22:46:35.821Z,51.70
2022-10-13T22:51:32.024Z,42.33
2022-10-13T22:53:59.430Z,47.47
2022-10-13T22:56:31.802Z,46.22
2022-10-13T22:59:05.050Z,50.38
2022-10-13T23:01:31.909Z,46.08
2022-10-13T23:03:59.221Z,47.70
2022-10-13T23:06:28.692Z,49.53
2022-10-13T23:08:55.425Z,50.55
2022-10-13T23:11:22.160Z,47.92
2022-10-13T23:13:49.231Z,49.92
2022-10-13T23:16:19.268Z,48.72
2022-10-13T23:18:46.568Z,46.80
2022-10-13T23:21:24.408Z,58.85
2022-10-13T23:24:10.861Z,47.33
2022-10-13T23:26:37.624Z,46.45
2022-10-13T23:29:05.081Z,49.58
2022-10-13T23:31:31.966Z,47.40
2022-10-13T23:33:58.968Z,50.42
2022-10-13T23:36:27.664Z,49.88
2022-10-13T23:39:00.363Z,52.88
2022-10-13T23:41:27.761Z,47.95
2022-10-13T23:43:54.372Z,56.22
2022-10-13T23:46:21.269Z,46.58
2022-10-13T23:48:48.038Z,50.67
2022-10-13T23:51:17.423Z,51.30
2022-10-13T23:53:44.491Z,53.10
2022-10-13T23:56:12.946Z,55.42
2022-10-13T23:58:41.244Z,49.72
